Time;durP1;ratioP1;P1;durP2;ratioP2;P2;SDS_P1;SDS_P2;PMS_P1;PMS_P2;Temp;Humidity;BMP_temperature;BMP_pressure;BME280_temperature;BME280_humidity;BME280_pressure;Samples;Min_cycle;Max_cycle;Signal;HPM_P1;HPM_P2
2023/09/07 00:00:19;;;;;;;;;;;;;;;19.00;64.10;100162.53;1084332;47;19957;-78
2023/09/07 00:01:23;;;;;;;;;;;;;;;19.02;64.21;100165.88;1085942;47;19986;-79
2023/09/07 00:02:23;;;;;;;;;;;;;;;19.04;63.83;100163.81;1085999;47;19975;-79
2023/09/07 00:03:26;;;;;;;;;;;;;;;19.08;64.10;100173.22;1083514;39;20377;-79
2023/09/07 00:04:31;;;;;;;;;;;;;;;19.08;63.81;100164.25;1082968;54;19961;-79
2023/09/07 00:05:35;;;;;;;;;;;;;;;19.07;63.82;100160.72;1084455;54;20002;-79
2023/09/07 00:06:35;;;;;;;;;;;;;;;19.13;63.79;100162.63;1084880;46;19946;-79
2023/09/07 00:07:38;;;;;;;;;;;;;;;19.16;63.71;100166.81;1084505;47;19962;-80
2023/09/07 00:08:39;;;;;;;;;;;;;;;19.21;63.72;100166.22;1084977;46;20014;-82
2023/09/07 00:09:43;;;;;;;;;;;;;;;19.25;63.01;100167.50;1084701;46;19950;-80
2023/09/07 00:10:43;;;;;;;;;;;;;;;19.28;63.19;100167.09;1083498;47;20045;-80
2023/09/07 00:11:46;;;;;;;;;;;;;;;19.30;62.86;100159.59;1083702;47;19951;-79
2023/09/07 00:12:47;;;;;;;;;;;;;;;19.31;62.76;100170.28;1084432;47;19977;-81
2023/09/07 00:13:50;;;;;;;;;;;;;;;19.34;62.99;100166.31;1084284;47;20666;-81
2023/09/07 00:14:52;;;;;;;;;;;;;;;19.32;63.27;100161.06;1083550;54;19957;-80
2023/09/07 00:15:55;;;;;;;;;;;;;;;19.29;63.16;100155.22;1083676;47;19950;-79
2023/09/07 00:16:57;;;;;;;;;;;;;;;19.30;63.26;100157.75;1083418;54;20051;-80
2023/09/07 00:18:00;;;;;;;;;;;;;;;19.32;62.96;100171.09;1083326;47;19953;-80
2023/09/07 00:19:02;;;;;;;;;;;;;;;19.36;62.85;100160.69;1083351;47;19955;-79
2023/09/07 00:20:14;;;;;;;;;;;;;;;19.39;62.61;100160.28;1083418;54;20942;-80
2023/09/07 00:21:14;;;;;;;;;;;;;;;19.33;62.96;100162.75;1084026;47;19946;-79
2023/09/07 00:22:17;;;;;;;;;;;;;;;19.34;62.91;100158.19;1083391;54;19971;-80
2023/09/07 00:23:19;;;;;;;;;;;;;;;19.30;63.13;100159.59;1083386;47;19947;-79
2023/09/07 00:24:23;;;;;;;;;;;;;;;19.34;63.08;100163.59;1083716;47;19946;-79
2023/09/07 00:25:23;;;;;;;;;;;;;;;19.30;63.16;100157.75;1083181;47;19947;-79
2023/09/07 00:26:26;;;;;;;;;;;;;;;19.35;62.61;100161.72;1083270;47;19958;-79
2023/09/07 00:27:27;;;;;;;;;;;;;;;19.34;62.80;100158.19;1085668;39;20481;-80
2023/09/07 00:28:30;;;;;;;;;;;;;;;19.26;63.38;100167.31;1085699;47;19975;-79
2023/09/07 00:29:31;;;;;;;;;;;;;;;19.23;62.94;100167.69;1085677;47;19970;-80
2023/09/07 00:30:34;;;;;;;;;;;;;;;19.26;62.94;100166.47;1085398;47;19950;-81
2023/09/07 00:31:34;;;;;;;;;;;;;;;19.27;62.93;100160.03;1085297;54;19971;-79
2023/09/07 00:32:38;;;;;;;;;;;;;;;19.25;63.15;100162.91;1085142;39;20096;-80
2023/09/07 00:33:39;;;;;;;;;;;;;;;19.18;63.64;100164.75;1085252;47;19971;-81
2023/09/07 00:34:39;;;;;;;;;;;;;;;19.22;63.18;100165.19;1084333;54;19958;-79
2023/09/07 00:39:55;;;;;;;;;;;;;;;19.24;62.82;100168.53;1086775;46;19942;-79
2023/09/07 00:40:55;;;;;;;;;;;;;;;19.22;62.90;100173.31;1087430;47;19942;-79
2023/09/07 00:41:59;;;;;;;;;;;;;;;19.20;63.08;100164.53;1087790;54;19943;-79
2023/09/07 00:43:04;;;;;;;;;;;;;;;19.22;62.93;100171.47;1087549;47;19942;-79
2023/09/07 00:44:08;;;;;;;;;;;;;;;19.25;62.33;100164.81;1087632;54;19942;-79
2023/09/07 00:45:10;;;;;;;;;;;;;;;19.26;62.42;100166.47;1088659;39;20663;-79
2023/09/07 00:46:15;;;;;;;;;;;;;;;19.22;62.59;100165.19;1087673;54;19943;-79
2023/09/07 00:47:16;;;;;;;;;;;;;;;19.25;62.40;100171.03;1089236;39;20632;-79
2023/09/07 00:48:24;;;;;;;;;;;;;;;19.27;62.41;100173.56;1087544;54;20006;-79
2023/09/07 00:49:25;;;;;;;;;;;;;;;19.27;62.57;100165.44;1086563;47;19995;-78
2023/09/07 00:50:28;;;;;;;;;;;;;;;19.28;62.58;100164.38;1086736;47;20684;-79
2023/09/07 00:51:29;;;;;;;;;;;;;;;19.29;62.24;100166.06;1086426;47;19946;-79
2023/09/07 00:52:33;;;;;;;;;;;;;;;19.30;62.64;100156.91;1087089;54;19985;-78
2023/09/07 00:53:34;;;;;;;;;;;;;;;19.29;62.17;100157.94;1087220;47;19939;-78
2023/09/07 00:54:38;;;;;;;;;;;;;;;19.30;62.33;100167.75;1087277;47;19949;-79
2023/09/07 00:55:41;;;;;;;;;;;;;;;19.17;63.23;100163.94;1089030;39;20445;-80
2023/09/07 00:56:44;;;;;;;;;;;;;;;19.15;62.99;100162.44;1087520;54;19943;-78
2023/09/07 00:57:45;;;;;;;;;;;;;;;19.18;62.72;100160.16;1086681;54;20081;-79
2023/09/07 00:58:48;;;;;;;;;;;;;;;19.21;62.70;100158.94;1086568;54;20217;-79
2023/09/07 00:59:49;;;;;;;;;;;;;;;19.15;63.32;100162.44;1086424;54;19950;-78
2023/09/07 01:00:52;;;;;;;;;;;;;;;19.03;63.93;100162.16;1087758;39;20383;-77
2023/09/07 01:01:53;;;;;;;;;;;;;;;19.06;63.81;100155.50;1087955;39;20355;-78
2023/09/07 01:02:56;;;;;;;;;;;;;;;19.03;63.58;100156.72;1086601;47;19950;-79
2023/09/07 01:03:57;;;;;;;;;;;;;;;18.97;63.86;100158.34;1087326;46;19969;-78
2023/09/07 01:05:00;;;;;;;;;;;;;;;18.92;64.07;100160.81;1087135;54;19957;-77
2023/09/07 01:06:03;;;;;;;;;;;;;;;18.92;64.17;100159.94;1087284;47;20008;-78
2023/09/07 01:07:12;;;;;;;;;;;;;;;18.92;64.00;100154.53;1086068;47;20002;-78
2023/09/07 01:08:17;;;;;;;;;;;;;;;18.91;64.36;100147.44;1085305;54;19942;-78
2023/09/07 01:09:20;;;;;;;;;;;;;;;18.90;64.06;100157.44;1085195;54;19946;-78
2023/09/07 01:10:24;;;;;;;;;;;;;;;18.92;63.67;100158.09;1085305;54;19959;-78
2023/09/07 01:11:35;;;;;;;;;;;;;;;18.80;64.51;100163.19;1086148;54;19943;-77
2023/09/07 01:12:38;;;;;;;;;;;;;;;18.70;64.85;100162.72;1087117;47;19962;-79
2023/09/07 01:13:39;;;;;;;;;;;;;;;18.77;64.15;100157.34;1087459;54;19942;-78
2023/09/07 01:14:40;;;;;;;;;;;;;;;18.71;65.29;100154.38;1087224;47;19950;-79
2023/09/07 01:15:43;;;;;;;;;;;;;;;18.67;65.35;100165.81;1086975;54;19943;-81
2023/09/07 01:16:45;;;;;;;;;;;;;;;18.62;65.40;100160.97;1087080;54;19968;-80
2023/09/07 01:17:48;;;;;;;;;;;;;;;18.66;64.78;100161.41;1086457;47;19943;-78
2023/09/07 01:18:49;;;;;;;;;;;;;;;18.66;65.16;100162.25;1085740;54;19976;-79
2023/09/07 01:19:53;;;;;;;;;;;;;;;18.64;65.26;100163.47;1085500;54;19970;-79
2023/09/07 01:20:54;;;;;;;;;;;;;;;18.67;64.50;100158.50;1084848;54;19946;-78
2023/09/07 01:22:00;;;;;;;;;;;;;;;18.67;64.45;100149.56;1085278;54;19954;-79
2023/09/07 01:23:01;;;;;;;;;;;;;;;18.66;64.72;100158.72;1085734;47;19950;-79
2023/09/07 01:24:03;;;;;;;;;;;;;;;18.67;64.45;100161.22;1086991;31;20518;-79
2023/09/07 01:25:08;;;;;;;;;;;;;;;18.71;64.10;100158.94;1086158;54;20523;-79
2023/09/07 01:26:09;;;;;;;;;;;;;;;18.76;64.32;100159.22;1086641;54;19938;-79
2023/09/07 01:27:13;;;;;;;;;;;;;;;18.79;64.33;100160.69;1086600;54;19962;-79
2023/09/07 01:28:15;;;;;;;;;;;;;;;18.83;63.88;100159.28;1086145;54;19950;-79
2023/09/07 01:29:19;;;;;;;;;;;;;;;18.80;64.35;100156.94;1085963;47;19966;-79
2023/09/07 01:30:20;;;;;;;;;;;;;;;18.80;64.10;100162.38;1085933;46;20590;-79
2023/09/07 01:31:23;;;;;;;;;;;;;;;18.81;64.04;100162.16;1086417;54;20078;-78
2023/09/07 01:32:25;;;;;;;;;;;;;;;18.84;63.99;100159.06;1086426;47;20488;-80
2023/09/07 01:33:29;;;;;;;;;;;;;;;18.85;63.73;100155.34;1086823;54;19950;-80
2023/09/07 01:34:29;;;;;;;;;;;;;;;18.85;63.56;100160.75;1086755;54;19942;-79
2023/09/07 01:35:34;;;;;;;;;;;;;;;18.86;63.88;100154.31;1086777;54;19946;-79
2023/09/07 01:36:40;;;;;;;;;;;;;;;18.82;63.68;100153.00;1086816;47;20007;-79
2023/09/07 01:37:46;;;;;;;;;;;;;;;18.83;63.77;100157.38;1087036;54;20053;-78
2023/09/07 01:38:47;;;;;;;;;;;;;;;18.83;63.65;100156.56;1086674;54;19978;-79
2023/09/07 01:39:50;;;;;;;;;;;;;;;18.81;63.76;100159.44;1086056;54;19950;-78
2023/09/07 01:40:52;;;;;;;;;;;;;;;18.74;64.01;100163.16;1086889;54;19950;-80
2023/09/07 01:41:57;;;;;;;;;;;;;;;18.73;64.13;100162.31;1089224;39;20500;-80
2023/09/07 01:42:57;;;;;;;;;;;;;;;18.70;64.32;100163.53;1086411;54;19950;-79
2023/09/07 01:44:01;;;;;;;;;;;;;;;18.73;64.25;100162.31;1086806;54;20005;-79
2023/09/07 01:45:01;;;;;;;;;;;;;;;18.70;64.01;100162.72;1086323;47;19951;-78
2023/09/07 01:46:05;;;;;;;;;;;;;;;18.71;64.05;100162.50;1086308;54;19946;-79
2023/09/07 01:47:06;;;;;;;;;;;;;;;18.74;63.92;100161.28;1086487;54;19975;-79
2023/09/07 01:48:11;;;;;;;;;;;;;;;18.65;64.56;100170.56;1087069;54;19970;-79
2023/09/07 01:49:18;;;;;;;;;;;;;;;18.53;64.83;100167.56;1090379;39;20600;-79
2023/09/07 01:50:21;;;;;;;;;;;;;;;18.54;64.37;100159.22;1090617;39;20639;-80
2023/09/07 01:51:22;;;;;;;;;;;;;;;18.51;64.96;100165.06;1086860;47;19954;-79
2023/09/07 01:52:25;;;;;;;;;;;;;;;18.44;65.05;100169.53;1087017;47;19950;-78
2023/09/07 01:53:29;;;;;;;;;;;;;;;18.52;64.54;100166.69;1086996;46;20475;-79
2023/09/07 01:54:33;;;;;;;;;;;;;;;18.48;65.01;100168.13;1088952;31;20501;-78
2023/09/07 01:55:35;;;;;;;;;;;;;;;18.39;65.43;100174.72;1086662;39;20434;-80
2023/09/07 01:56:35;;;;;;;;;;;;;;;18.38;65.46;100171.16;1086785;54;19943;-80
2023/09/07 01:57:39;;;;;;;;;;;;;;;18.42;64.88;100171.59;1087369;47;20613;-79
2023/09/07 01:58:40;;;;;;;;;;;;;;;18.46;64.96;100166.66;1087402;54;20021;-79
2023/09/07 01:59:44;;;;;;;;;;;;;;;18.38;65.16;100165.75;1087269;47;19939;-78
2023/09/07 02:00:46;;;;;;;;;;;;;;;18.42;64.86;100171.59;1086540;54;20476;-78
2023/09/07 02:01:50;;;;;;;;;;;;;;;18.47;65.29;100166.47;1087067;39;20634;-77
2023/09/07 02:02:50;;;;;;;;;;;;;;;18.45;64.94;100165.00;1089162;39;20540;-78
2023/09/07 02:03:51;;;;;;;;;;;;;;;18.44;64.88;100161.41;1086741;54;20811;-78
2023/09/07 02:04:54;;;;;;;;;;;;;;;18.45;64.55;100157.69;1086804;47;19943;-78
2023/09/07 02:05:55;;;;;;;;;;;;;;;18.49;64.62;100164.41;1086517;54;19977;-79
2023/09/07 02:06:58;;;;;;;;;;;;;;;18.52;64.24;100164.00;1086546;54;19954;-78
2023/09/07 02:07:59;;;;;;;;;;;;;;;18.53;64.48;100159.44;1086631;47;19950;-79
2023/09/07 02:09:04;;;;;;;;;;;;;;;18.54;64.33;100158.41;1086557;54;20028;-79
2023/09/07 02:10:08;;;;;;;;;;;;;;;18.53;64.77;100156.72;1086986;54;19957;-80
2023/09/07 02:11:09;;;;;;;;;;;;;;;18.42;65.15;100160.78;1086908;47;19973;-79
2023/09/07 02:12:14;;;;;;;;;;;;;;;18.39;65.08;100172.00;1087233;54;19942;-79
2023/09/07 02:13:14;;;;;;;;;;;;;;;18.27;66.01;100165.41;1086909;54;20018;-79
2023/09/07 02:14:18;;;;;;;;;;;;;;;18.13;66.31;100165.31;1087411;47;19961;-81
2023/09/07 02:15:18;;;;;;;;;;;;;;;18.03;66.85;100162.06;1087063;47;19950;-78
2023/09/07 02:16:22;;;;;;;;;;;;;;;18.01;66.72;100166.81;1087123;47;19962;-79
2023/09/07 02:17:22;;;;;;;;;;;;;;;17.89;67.22;100164.56;1087029;54;19943;-80
2023/09/07 02:18:26;;;;;;;;;;;;;;;17.77;67.93;100166.06;1087325;47;19946;-80
2023/09/07 02:19:26;;;;;;;;;;;;;;;17.67;67.98;100177.19;1087515;54;19950;-80
2023/09/07 02:20:32;;;;;;;;;;;;;;;17.77;67.68;100163.38;1091995;39;20680;-80
2023/09/07 06:08:45;;;;;;;;;;;;;;;17.56;67.40;100205.56;1086981;54;19990;-77
2023/09/07 06:11:03;;;;;;;;;;;;;;;17.65;66.90;100206.28;1086194;54;19939;-78
2023/09/07 06:12:04;;;;;;;;;;;;;;;17.74;66.79;100204.31;1087225;47;19942;-77
2023/09/07 06:13:07;;;;;;;;;;;;;;;17.80;66.31;100200.84;1087283;54;19998;-77
2023/09/07 06:14:08;;;;;;;;;;;;;;;17.84;66.05;100198.63;1087232;47;19967;-77
2023/09/07 06:15:11;;;;;;;;;;;;;;;17.84;66.15;100202.16;1088189;39;20521;-78
2023/09/07 06:16:12;;;;;;;;;;;;;;;17.88;66.01;100197.22;1087244;47;19970;-77
2023/09/07 06:17:15;;;;;;;;;;;;;;;17.92;66.22;100202.06;1087182;54;19973;-78
2023/09/07 06:18:16;;;;;;;;;;;;;;;17.93;65.88;100205.59;1087151;47;19967;-78
2023/09/07 06:19:19;;;;;;;;;;;;;;;17.96;65.81;100197.13;1087218;47;19950;-78
2023/09/07 06:20:20;;;;;;;;;;;;;;;17.94;65.86;100196.44;1087245;47;19946;-79
2023/09/07 06:21:23;;;;;;;;;;;;;;;17.95;65.42;100192.72;1087285;47;20533;-78
2023/09/07 06:22:24;;;;;;;;;;;;;;;17.92;65.70;100195.78;1087208;54;19954;-78
2023/09/07 06:23:27;;;;;;;;;;;;;;;17.96;65.67;100199.84;1087172;54;19943;-79
2023/09/07 06:24:30;;;;;;;;;;;;;;;18.01;65.64;100185.75;1087084;47;19950;-78
2023/09/07 06:25:33;;;;;;;;;;;;;;;18.01;65.42;100201.97;1087117;54;19966;-77
2023/09/07 06:26:34;;;;;;;;;;;;;;;18.00;65.43;100194.88;1087183;47;20249;-78
2023/09/07 06:27:35;;;;;;;;;;;;;;;17.99;65.55;100194.06;1087152;47;19942;-79
2023/09/07 06:28:38;;;;;;;;;;;;;;;18.04;65.08;100201.59;1087056;54;19943;-78
2023/09/07 06:29:39;;;;;;;;;;;;;;;18.02;65.04;100190.13;1087304;54;19950;-76
2023/09/07 06:30:42;;;;;;;;;;;;;;;18.04;65.05;100191.63;1087190;54;19942;-77
2023/09/07 06:31:43;;;;;;;;;;;;;;;18.12;65.06;100198.78;1087170;54;19950;-77
2023/09/07 06:32:48;;;;;;;;;;;;;;;18.11;64.89;100202.50;1087116;54;19943;-78
2023/09/07 06:33:49;;;;;;;;;;;;;;;18.13;64.67;100196.91;1087131;47;19950;-77
2023/09/07 06:34:52;;;;;;;;;;;;;;;18.13;64.62;100195.06;1087253;47;19942;-78
2023/09/07 06:35:52;;;;;;;;;;;;;;;18.16;64.91;100200.06;1087648;39;20221;-77
2023/09/07 06:36:53;;;;;;;;;;;;;;;18.16;64.88;100194.66;1087222;54;19942;-76
2023/09/07 06:37:56;;;;;;;;;;;;;;;18.20;64.28;100198.66;1087266;47;19951;-78
2023/09/07 06:38:57;;;;;;;;;;;;;;;18.30;64.37;100201.03;1087129;54;19966;-77
2023/09/07 06:40:00;;;;;;;;;;;;;;;18.26;64.48;100197.06;1087081;47;19967;-78
2023/09/07 06:41:04;;;;;;;;;;;;;;;18.36;64.00;100197.59;1087225;54;20020;-77
2023/09/07 06:42:05;;;;;;;;;;;;;;;18.40;64.02;100196.16;1088750;39;20556;-77
2023/09/07 06:43:08;;;;;;;;;;;;;;;18.42;63.92;100200.53;1087224;54;19967;-77
2023/09/07 06:44:09;;;;;;;;;;;;;;;18.37;64.15;100195.72;1087657;39;20841;-77
2023/09/07 06:45:13;;;;;;;;;;;;;;;18.49;63.89;100205.00;1087174;47;19943;-77
2023/09/07 06:46:14;;;;;;;;;;;;;;;18.54;63.76;100202.53;1087224;54;19995;-77
2023/09/07 06:47:17;;;;;;;;;;;;;;;18.63;63.37;100197.84;1087061;47;19943;-78
2023/09/07 06:48:18;;;;;;;;;;;;;;;18.68;63.24;100199.97;1087142;47;19943;-78
2023/09/07 06:49:22;;;;;;;;;;;;;;;18.69;63.18;100198.94;1087215;47;19967;-76
2023/09/07 06:50:22;;;;;;;;;;;;;;;18.76;62.85;100194.41;1087089;51;19950;-77
2023/09/07 06:51:26;;;;;;;;;;;;;;;18.75;62.78;100203.56;1088129;39;20228;-77
2023/09/07 06:52:26;;;;;;;;;;;;;;;18.74;62.84;100201.06;1087102;54;19995;-77
2023/09/07 06:53:29;;;;;;;;;;;;;;;18.78;62.77;100203.19;1087012;54;19943;-78
2023/09/07 06:54:30;;;;;;;;;;;;;;;18.85;62.64;100209.50;1086814;54;20255;-77
2023/09/07 06:55:36;;;;;;;;;;;;;;;18.94;62.85;100206.66;1086790;54;20061;-77
2023/09/07 06:56:37;;;;;;;;;;;;;;;18.88;62.17;100204.72;1087028;51;19966;-78
2023/09/07 06:57:38;;;;;;;;;;;;;;;18.92;62.60;100201.44;1087158;47;19975;-77
2023/09/07 06:58:41;;;;;;;;;;;;;;;19.02;62.23;100203.81;1086965;47;19954;-77
2023/09/07 06:59:43;;;;;;;;;;;;;;;19.02;62.06;100203.81;1087194;54;19954;-77
2023/09/07 07:00:47;;;;;;;;;;;;;;;19.09;61.86;100204.69;1087166;54;19927;-78
2023/09/07 07:01:48;;;;;;;;;;;;;;;19.20;61.95;100206.03;1087128;47;19966;-78
2023/09/07 07:02:51;;;;;;;;;;;;;;;19.27;61.59;100200.69;1087059;54;19942;-78
2023/09/07 07:03:52;;;;;;;;;;;;;;;19.24;61.15;100201.06;1087007;47;19955;-78
2023/09/07 07:04:56;;;;;;;;;;;;;;;19.24;61.16;100201.06;1087180;54;19994;-77
2023/09/07 07:05:56;;;;;;;;;;;;;;;19.29;61.21;100201.28;1087087;47;19943;-78
2023/09/07 07:07:01;;;;;;;;;;;;;;;19.29;61.25;100198.59;1087103;54;19966;-78
2023/09/07 07:08:01;;;;;;;;;;;;;;;19.35;61.01;100203.22;1087136;47;20050;-77
2023/09/07 07:09:05;;;;;;;;;;;;;;;19.37;60.86;100200.31;1087101;47;19951;-77
2023/09/07 07:10:06;;;;;;;;;;;;;;;19.40;60.93;100203.47;1087102;54;19943;-77
2023/09/07 07:11:12;;;;;;;;;;;;;;;19.53;60.81;100205.41;1087194;54;19942;-77
2023/09/07 07:12:13;;;;;;;;;;;;;;;19.60;60.58;100192.72;1087293;54;19947;-78
2023/09/07 07:13:16;;;;;;;;;;;;;;;19.67;60.78;100203.59;1087200;54;19942;-78
2023/09/07 07:14:17;;;;;;;;;;;;;;;19.70;60.21;100196.94;1087234;54;19974;-77
2023/09/07 07:15:20;;;;;;;;;;;;;;;19.79;60.44;100198.44;1087105;47;19939;-77
2023/09/07 07:16:21;;;;;;;;;;;;;;;19.82;60.33;100197.22;1087241;47;20401;-77
2023/09/07 07:17:24;;;;;;;;;;;;;;;19.80;60.28;100198.25;1087126;47;19967;-78
2023/09/07 07:18:24;;;;;;;;;;;;;;;19.85;60.31;100197.69;1087097;47;20035;-77
2023/09/07 07:19:28;;;;;;;;;;;;;;;19.90;60.09;100194.34;1087228;54;19943;-78
2023/09/07 07:20:28;;;;;;;;;;;;;;;19.85;59.76;100197.69;1087260;47;19966;-78
2023/09/07 07:21:32;;;;;;;;;;;;;;;19.85;59.74;100200.38;1087246;54;19950;-79
2023/09/07 07:22:35;;;;;;;;;;;;;;;19.93;59.65;100207.53;1087414;54;19943;-78
2023/09/07 07:23:38;;;;;;;;;;;;;;;19.96;59.39;100204.38;1087387;54;19946;-78
2023/09/07 07:24:40;;;;;;;;;;;;;;;20.09;59.40;100204.44;1087712;47;19951;-78
2023/09/07 07:25:43;;;;;;;;;;;;;;;20.15;59.12;100204.66;1087576;47;19949;-78
2023/09/07 07:26:47;;;;;;;;;;;;;;;20.26;58.53;100206.78;1087540;54;19943;-78
2023/09/07 07:27:50;;;;;;;;;;;;;;;20.35;58.62;100207.44;1087432;54;19943;-77
2023/09/07 07:28:51;;;;;;;;;;;;;;;20.40;58.11;100199.50;1087646;54;19994;-78
2023/09/07 07:29:54;;;;;;;;;;;;;;;20.39;58.68;100205.97;1087442;54;19942;-78
2023/09/07 07:30:55;;;;;;;;;;;;;;;20.37;58.20;100200.75;1087536;54;19951;-78
2023/09/07 07:31:58;;;;;;;;;;;;;;;20.35;58.12;100197.41;1087465;46;20011;-77
2023/09/07 07:32:59;;;;;;;;;;;;;;;20.44;58.29;100202.63;1089047;39;20189;-78
2023/09/07 07:33:59;;;;;;;;;;;;;;;20.44;57.44;100202.63;1087455;54;19954;-77
2023/09/07 07:35:03;;;;;;;;;;;;;;;20.48;57.77;100201.19;1087524;54;19942;-78
2023/09/07 07:36:04;;;;;;;;;;;;;;;20.48;57.82;100196.59;1087595;47;19949;-78
2023/09/07 07:37:07;;;;;;;;;;;;;;;20.48;57.44;100198.47;1087512;54;19942;-78
2023/09/07 07:38:08;;;;;;;;;;;;;;;20.60;57.42;100199.53;1087534;54;19943;-78
2023/09/07 07:39:12;;;;;;;;;;;;;;;20.70;56.84;100197.22;1087718;54;19942;-79
2023/09/07 07:40:13;;;;;;;;;;;;;;;20.86;56.92;100200.63;1087799;47;19949;-80
2023/09/07 07:41:16;;;;;;;;;;;;;;;21.00;56.61;100199.56;1087800;47;20247;-78
2023/09/07 07:42:20;;;;;;;;;;;;;;;20.95;56.14;100195.81;1087534;54;19950;-79
2023/09/07 07:43:23;;;;;;;;;;;;;;;20.94;56.24;100188.69;1087573;54;19943;-79
2023/09/07 07:44:24;;;;;;;;;;;;;;;21.00;56.05;100193.31;1087524;47;20026;-77
2023/09/07 07:45:27;;;;;;;;;;;;;;;21.12;56.15;100198.94;1087521;54;19942;-78
2023/09/07 07:46:28;;;;;;;;;;;;;;;21.26;55.67;100186.16;1087557;47;19954;-79
2023/09/07 07:47:31;;;;;;;;;;;;;;;21.42;55.37;100187.59;1087486;54;19942;-79
2023/09/07 07:48:35;;;;;;;;;;;;;;;21.57;55.21;100193.63;1087468;54;19954;-78
2023/09/07 07:49:38;;;;;;;;;;;;;;;21.50;54.81;100193.63;1087655;54;19943;-79
2023/09/07 07:50:39;;;;;;;;;;;;;;;21.59;54.58;100196.13;1087552;54;19942;-78
2023/09/07 07:51:42;;;;;;;;;;;;;;;21.65;54.52;100190.69;1087492;54;19954;-78
2023/09/07 07:52:43;;;;;;;;;;;;;;;21.65;54.06;100187.16;1087494;54;19942;-77
2023/09/07 07:53:46;;;;;;;;;;;;;;;21.78;53.94;100188.97;1087469;47;19942;-77
2023/09/07 07:54:46;;;;;;;;;;;;;;;21.94;53.45;100183.03;1088549;39;20158;-78
2023/09/07 07:55:50;;;;;;;;;;;;;;;22.00;53.69;100183.25;1087557;54;19967;-77
2023/09/07 07:56:50;;;;;;;;;;;;;;;21.96;53.23;100188.28;1087543;54;19942;-79
2023/09/07 07:57:56;;;;;;;;;;;;;;;22.06;53.15;100185.06;1087569;54;19943;-79
2023/09/07 07:58:57;;;;;;;;;;;;;;;22.13;52.91;100191.31;1087356;47;20020;-79
2023/09/07 08:00:00;;;;;;;;;;;;;;;22.39;52.91;100178.59;1087603;47;19942;-78
2023/09/07 08:01:01;;;;;;;;;;;;;;;22.51;52.09;100176.88;1087582;51;19966;-78
2023/09/07 08:02:05;;;;;;;;;;;;;;;22.46;52.32;100179.44;1087590;54;20022;-79
2023/09/07 08:03:06;;;;;;;;;;;;;;;22.57;52.54;100178.72;1087401;54;19950;-78
2023/09/07 08:04:11;;;;;;;;;;;;;;;22.56;52.11;100182.50;1087593;54;19942;-78
2023/09/07 08:05:11;;;;;;;;;;;;;;;22.55;51.85;100172.66;1087460;47;19943;-78
2023/09/07 08:06:12;;;;;;;;;;;;;;;22.69;51.83;100178.00;1087068;46;19967;-79
2023/09/07 08:07:15;;;;;;;;;;;;;;;22.84;51.60;100180.38;1086936;47;19946;-78
2023/09/07 08:08:16;;;;;;;;;;;;;;;22.99;51.11;100175.44;1087174;54;19966;-79
2023/09/07 08:09:19;;;;;;;;;;;;;;;23.13;50.62;100175.31;1087293;54;19967;-77
2023/09/07 08:10:20;;;;;;;;;;;;;;;23.34;50.29;100174.06;1087376;47;19966;-78
2023/09/07 08:11:23;;;;;;;;;;;;;;;23.39;49.94;100174.22;1087376;47;19943;-78
2023/09/07 08:12:24;;;;;;;;;;;;;;;23.59;49.81;100173.16;1087512;47;19965;-78
2023/09/07 08:13:30;;;;;;;;;;;;;;;23.79;49.46;100170.19;1087427;54;19966;-79
2023/09/07 08:14:31;;;;;;;;;;;;;;;23.74;49.03;100168.16;1087470;47;19950;-77
2023/09/07 08:15:34;;;;;;;;;;;;;;;24.02;49.14;100177.69;1087417;47;19942;-77
2023/09/07 08:16:35;;;;;;;;;;;;;;;24.28;48.73;100170.19;1087426;47;19962;-78
2023/09/07 08:17:38;;;;;;;;;;;;;;;24.47;47.65;100170.13;1087398;54;19943;-78
2023/09/07 08:18:40;;;;;;;;;;;;;;;24.17;47.48;100171.00;1087346;51;19943;-78
2023/09/07 08:19:43;;;;;;;;;;;;;;;24.28;47.78;100165.56;1087409;54;20026;-77
2023/09/07 08:20:45;;;;;;;;;;;;;;;24.33;47.86;100175.78;1088309;39;20171;-78
2023/09/07 08:21:48;;;;;;;;;;;;;;;24.45;47.55;100168.47;1087438;47;19957;-78
2023/09/07 08:22:49;;;;;;;;;;;;;;;24.64;47.35;100164.81;1087329;47;19942;-78
2023/09/07 08:23:53;;;;;;;;;;;;;;;24.89;46.45;100161.88;1087399;47;19943;-78
2023/09/07 08:24:54;;;;;;;;;;;;;;;25.07;46.18;100163.69;1087463;54;19943;-78
2023/09/07 08:25:57;;;;;;;;;;;;;;;25.31;45.55;100159.03;1087470;47;19966;-77
2023/09/07 08:27:00;;;;;;;;;;;;;;;25.53;45.52;100161.16;1087727;47;19966;-80
2023/09/07 08:28:05;;;;;;;;;;;;;;;25.53;45.24;100162.00;1087610;47;19943;-79
2023/09/07 08:29:08;;;;;;;;;;;;;;;25.61;45.05;100155.28;1087767;47;19949;-80
2023/09/07 08:30:17;;;;;;;;;;;;;;;25.69;44.28;100160.38;1087522;54;21016;-79
2023/09/07 08:31:21;;;;;;;;;;;;;;;25.65;44.32;100159.22;1087871;54;19927;-78
2023/09/07 08:32:24;;;;;;;;;;;;;;;25.78;44.82;100157.28;1087564;54;19939;-78
2023/09/07 08:33:28;;;;;;;;;;;;;;;25.91;43.79;100156.16;1087534;54;19966;-81
2023/09/07 08:34:31;;;;;;;;;;;;;;;25.99;43.69;100153.84;1087570;47;19950;-77
2023/09/07 08:35:35;;;;;;;;;;;;;;;26.01;43.27;100159.91;1087389;54;20027;-77
2023/09/07 08:36:38;;;;;;;;;;;;;;;25.95;43.47;100155.44;1087606;54;19942;-80
2023/09/07 08:37:39;;;;;;;;;;;;;;;26.11;43.51;100153.84;1087377;54;20015;-78
2023/09/07 08:38:55;;;;;;;;;;;;;;;26.26;43.55;100152.44;1087623;54;19942;-81
2023/09/07 08:39:57;;;;;;;;;;;;;;;26.31;43.03;100156.13;1087772;47;19942;-80
2023/09/07 08:41:04;;;;;;;;;;;;;;;26.28;43.23;100156.59;1088321;39;20659;-78
2023/09/07 08:42:05;;;;;;;;;;;;;;;26.27;43.69;100157.69;1087331;47;19943;-78
2023/09/07 08:43:12;;;;;;;;;;;;;;;26.02;43.66;100163.50;1087413;54;19942;-78
2023/09/07 08:44:16;;;;;;;;;;;;;;;26.06;43.38;100153.72;1087677;47;19950;-81
2023/09/07 08:45:21;;;;;;;;;;;;;;;26.01;43.37;100162.66;1087381;47;19954;-78
2023/09/07 08:46:23;;;;;;;;;;;;;;;25.61;44.39;100166.25;1087541;47;19954;-78
2023/09/07 08:47:29;;;;;;;;;;;;;;;25.47;44.19;100167.59;1087564;54;19949;-79
2023/09/07 08:48:29;;;;;;;;;;;;;;;25.57;44.35;100162.34;1087431;54;19942;-78
2023/09/07 08:49:33;;;;;;;;;;;;;;;25.43;44.54;100164.50;1087440;54;19966;-78
2023/09/07 08:50:37;;;;;;;;;;;;;;;25.54;44.32;100168.28;1087576;47;19942;-78
2023/09/07 08:51:41;;;;;;;;;;;;;;;25.75;44.34;100153.09;1087376;54;19950;-78
2023/09/07 08:52:42;;;;;;;;;;;;;;;25.56;44.30;100155.19;1087344;54;19966;-78
2023/09/07 08:53:46;;;;;;;;;;;;;;;25.45;44.57;100161.53;1087297;47;19957;-79
2023/09/07 08:54:47;;;;;;;;;;;;;;;25.44;44.75;100159.84;1087325;47;20023;-77
2023/09/07 08:55:51;;;;;;;;;;;;;;;25.28;44.99;100159.50;1087391;47;19943;-79
2023/09/07 08:56:51;;;;;;;;;;;;;;;25.48;44.64;100161.06;1087253;47;19950;-78
2023/09/07 08:57:55;;;;;;;;;;;;;;;25.78;43.87;100157.28;1087360;47;19958;-78
2023/09/07 08:58:56;;;;;;;;;;;;;;;26.07;43.50;100154.56;1087459;47;19962;-79
2023/09/07 09:00:04;;;;;;;;;;;;;;;26.27;43.20;100154.94;1087385;47;19967;-77
2023/09/07 09:01:08;;;;;;;;;;;;;;;26.61;42.54;100152.25;1087303;54;19976;-78
2023/09/07 09:02:12;;;;;;;;;;;;;;;26.76;42.05;100150.81;1087448;47;19947;-78
2023/09/07 09:03:13;;;;;;;;;;;;;;;27.00;41.71;100147.94;1087382;47;19949;-78
2023/09/07 09:04:17;;;;;;;;;;;;;;;26.65;42.23;100152.56;1087483;54;19954;-78
2023/09/07 09:05:19;;;;;;;;;;;;;;;26.15;42.90;100156.94;1087317;54;20010;-79
2023/09/07 09:06:23;;;;;;;;;;;;;;;26.45;43.04;100156.63;1089783;39;20146;-78
2023/09/07 09:07:24;;;;;;;;;;;;;;;26.79;42.43;100158.59;1087301;46;19966;-78
2023/09/07 09:08:27;;;;;;;;;;;;;;;26.57;41.90;100151.06;1087307;47;19942;-78
2023/09/07 09:09:28;;;;;;;;;;;;;;;26.35;42.09;100156.44;1087339;54;20018;-78
2023/09/07 09:10:31;;;;;;;;;;;;;;;26.29;42.51;100158.25;1087236;47;19942;-78
2023/09/07 09:11:32;;;;;;;;;;;;;;;26.63;42.33;100160.22;1087163;54;19966;-77
2023/09/07 09:12:35;;;;;;;;;;;;;;;26.86;42.04;100151.00;1087215;47;19943;-78
2023/09/07 09:13:36;;;;;;;;;;;;;;;26.86;41.90;100156.50;1087212;47;19942;-77